createdAt,value
2018-06-01T00:00:40.836Z,19.26
2018-06-01T00:01:40.822Z,19.13
2018-06-01T00:02:40.833Z,19.18
2018-06-01T00:03:40.838Z,19.02
2018-06-01T00:04:40.846Z,19.22
2018-06-01T00:05:40.855Z,19.31
2018-06-01T00:06:40.849Z,18.91
2018-06-01T00:07:40.871Z,18.98
2018-06-01T00:08:40.875Z,19.18
2018-06-01T00:09:40.873Z,19.18
2018-06-01T00:10:40.885Z,19.21
2018-06-01T00:11:40.888Z,19.25
2018-06-01T00:12:40.897Z,19.04
2018-06-01T00:13:40.903Z,19.19
2018-06-01T00:14:40.911Z,19.08
2018-06-01T00:15:40.919Z,19.11
2018-06-01T00:16:40.927Z,19.11
2018-06-01T00:17:40.932Z,19.08
2018-06-01T00:18:40.953Z,19.16
2018-06-01T00:19:40.951Z,19.16
2018-06-01T00:20:40.956Z,18.98
2018-06-01T00:21:40.973Z,18.63
2018-06-01T00:22:40.977Z,18.94
2018-06-01T00:23:40.982Z,19.07
2018-06-01T00:24:40.986Z,18.98
2018-06-01T00:25:40.997Z,19.04
2018-06-01T00:26:41.003Z,19.18
2018-06-01T00:27:41.013Z,19.21
2018-06-01T00:28:41.022Z,19.16
2018-06-01T00:29:41.021Z,19.23
2018-06-01T00:30:41.029Z,19.23
2018-06-01T00:31:41.037Z,19.25
2018-06-01T00:32:41.048Z,19.16
2018-06-01T00:33:41.055Z,19.11
2018-06-01T00:34:41.068Z,19.19
2018-06-01T00:35:41.070Z,19.14
2018-06-01T00:36:41.076Z,19.25
2018-06-01T00:37:41.082Z,19.18
2018-06-01T00:38:41.091Z,19.19
2018-06-01T00:39:41.107Z,19.18
2018-06-01T00:40:41.113Z,18.81
2018-06-01T00:41:41.111Z,19.06
2018-06-01T00:42:41.121Z,19.10
2018-06-01T00:43:41.131Z,19.06
2018-06-01T00:44:41.140Z,19.00
2018-06-01T00:45:41.143Z,19.21
2018-06-01T00:46:41.151Z,19.33
2018-06-01T00:47:41.161Z,19.25
2018-06-01T00:48:41.169Z,19.33
2018-06-01T00:49:41.173Z,19.25
2018-06-01T00:50:41.184Z,19.14
2018-06-01T00:51:41.195Z,19.19
2018-06-01T00:52:41.195Z,19.22
2018-06-01T00:53:41.206Z,19.21
2018-06-01T00:54:41.211Z,19.39
2018-06-01T00:55:41.219Z,19.32
2018-06-01T00:56:41.226Z,19.16
2018-06-01T00:57:41.239Z,19.14
2018-06-01T00:58:41.240Z,19.23
2018-06-01T00:59:41.254Z,19.33
2018-06-01T01:00:41.254Z,19.29
2018-06-01T01:01:41.268Z,19.19
2018-06-01T01:02:41.276Z,19.37
2018-06-01T01:03:41.290Z,19.33
2018-06-01T01:04:41.299Z,19.29
2018-06-01T01:05:41.293Z,19.33
2018-06-01T01:06:41.302Z,19.33
2018-06-01T01:07:41.309Z,19.31
2018-06-01T01:08:41.317Z,19.41
2018-06-01T01:09:41.333Z,19.44
2018-06-01T01:10:41.334Z,19.32
2018-06-01T01:11:41.342Z,19.40
2018-06-01T01:12:41.350Z,19.31
2018-06-01T01:13:41.354Z,19.23
2018-06-01T01:14:41.364Z,19.32
2018-06-01T01:15:41.370Z,19.25
2018-06-01T01:16:41.374Z,19.32
2018-06-01T01:17:41.385Z,19.32
2018-06-01T01:18:41.389Z,19.33
2018-06-01T01:19:41.396Z,19.29
2018-06-01T01:20:41.417Z,19.28
2018-06-01T01:21:41.409Z,19.16
2018-06-01T01:22:41.419Z,19.22
2018-06-01T01:23:41.423Z,19.19
2018-06-01T01:24:41.434Z,19.14
2018-06-01T01:25:41.444Z,19.18
2018-06-01T01:26:41.447Z,19.06
2018-06-01T01:27:41.461Z,18.99
2018-06-01T01:28:41.466Z,19.06
2018-06-01T01:29:41.469Z,19.14
2018-06-01T01:30:41.503Z,18.94
2018-06-01T01:31:41.485Z,19.13
2018-06-01T01:32:41.495Z,19.13
2018-06-01T01:33:41.497Z,19.14
2018-06-01T01:34:41.505Z,18.99
2018-06-01T01:35:41.513Z,18.98
2018-06-01T01:36:41.526Z,18.99
2018-06-01T01:37:41.532Z,18.99
2018-06-01T01:38:41.534Z,19.00
2018-06-01T01:39:41.545Z,18.99
2018-06-01T01:40:41.549Z,19.13
2018-06-01T01:41:41.557Z,19.10
2018-06-01T01:42:41.566Z,18.92
2018-06-01T01:43:41.577Z,18.98
2018-06-01T01:44:41.579Z,18.94
2018-06-01T01:45:41.585Z,18.90
2018-06-01T01:46:41.591Z,18.99
2018-06-01T01:47:41.599Z,18.91
2018-06-01T01:48:41.629Z,18.98
2018-06-01T01:49:41.613Z,18.95
2018-06-01T01:50:41.621Z,19.02
2018-06-01T01:51:41.637Z,19.00
2018-06-01T01:52:41.638Z,19.07
2018-06-01T01:53:41.656Z,18.98
2018-06-01T01:54:41.655Z,19.07
2018-06-01T01:55:41.662Z,19.06
2018-06-01T01:56:41.670Z,19.06
2018-06-01T01:57:41.678Z,18.98
2018-06-01T01:58:41.681Z,18.99
2018-06-01T01:59:41.697Z,18.95
2018-06-01T02:00:41.705Z,19.06
2018-06-01T02:01:41.711Z,19.07
2018-06-01T02:02:41.712Z,19.07
2018-06-01T02:03:41.720Z,19.18
2018-06-01T02:04:41.728Z,19.00
2018-06-01T02:05:41.741Z,19.00
2018-06-01T02:06:41.744Z,18.95
2018-06-01T02:07:41.772Z,18.98
2018-06-01T02:08:41.759Z,18.94
2018-06-01T02:09:41.760Z,18.98
2018-06-01T02:10:41.775Z,18.90
2018-06-01T02:11:41.790Z,18.98
2018-06-01T02:12:41.785Z,18.98
2018-06-01T02:13:41.796Z,18.98
2018-06-01T02:14:41.805Z,19.10
2018-06-01T02:15:41.805Z,19.02
2018-06-01T02:16:41.821Z,18.94
2018-06-01T02:17:41.827Z,18.92
2018-06-01T02:18:41.825Z,18.90
2018-06-01T02:19:41.832Z,18.88
2018-06-01T02:20:41.846Z,18.87
2018-06-01T02:21:41.856Z,18.90
2018-06-01T02:22:41.857Z,18.90
2018-06-01T02:23:41.876Z,18.91
2018-06-01T02:24:41.917Z,18.90
2018-06-01T02:25:41.878Z,18.99
2018-06-01T02:26:41.915Z,18.91
2018-06-01T02:27:41.894Z,18.87
2018-06-01T02:28:41.898Z,18.81
2018-06-01T02:29:41.909Z,18.90
2018-06-01T02:30:41.922Z,18.90
2018-06-01T02:31:41.920Z,18.76
2018-06-01T02:32:41.927Z,18.82
2018-06-01T02:33:41.931Z,18.85
2018-06-01T02:34:41.954Z,18.80
2018-06-01T02:35:41.956Z,18.82
2018-06-01T02:36:41.986Z,18.87
2018-06-01T02:37:41.968Z,18.91
2018-06-01T02:38:41.972Z,18.78
2018-06-01T02:39:41.982Z,18.90
2018-06-01T02:40:41.985Z,18.85
2018-06-01T02:41:42.001Z,18.76
2018-06-01T02:42:42.006Z,18.88
2018-06-01T02:43:42.009Z,18.91
2018-06-01T02:44:42.012Z,19.00
2018-06-01T02:45:42.031Z,18.95
2018-06-01T02:46:42.030Z,18.82
2018-06-01T02:47:42.037Z,18.82
2018-06-01T02:48:42.044Z,18.54
2018-06-01T02:49:42.056Z,18.75
2018-06-01T02:50:42.061Z,18.76
2018-06-01T02:51:42.085Z,18.63
2018-06-01T02:52:42.071Z,18.62
2018-06-01T02:53:42.082Z,18.54
2018-06-01T02:54:42.083Z,18.50
2018-06-01T02:55:42.094Z,18.47
2018-06-01T02:56:42.112Z,18.67
2018-06-01T02:57:42.104Z,18.55
2018-06-01T02:58:42.118Z,18.55
2018-06-01T02:59:42.130Z,18.58
2018-06-01T03:00:42.130Z,18.57
2018-06-01T03:01:42.133Z,18.66
2018-06-01T03:02:42.139Z,18.39
2018-06-01T03:03:42.149Z,18.51
2018-06-01T03:04:42.158Z,18.52
2018-06-01T03:05:42.176Z,18.36
2018-06-01T03:06:42.170Z,18.36
2018-06-01T03:07:42.175Z,18.42
2018-06-01T03:08:42.190Z,18.58
2018-06-01T03:09:42.196Z,18.60
2018-06-01T03:10:42.199Z,18.41
2018-06-01T03:11:42.200Z,18.54
2018-06-01T03:12:42.208Z,18.51
2018-06-01T03:13:42.217Z,18.50
2018-06-01T03:14:42.228Z,18.63
2018-06-01T03:15:42.230Z,18.51
2018-06-01T03:16:42.238Z,18.70
2018-06-01T03:17:42.253Z,18.70
2018-06-01T03:18:42.253Z,18.76
2018-06-01T03:19:42.260Z,18.70
2018-06-01T03:20:42.278Z,18.63
2018-06-01T03:21:42.281Z,18.42
2018-06-01T03:22:42.284Z,18.50
2018-06-01T03:23:42.284Z,18.62
2018-06-01T03:24:42.297Z,18.54
2018-06-01T03:25:42.298Z,18.48
2018-06-01T03:26:42.316Z,18.66
2018-06-01T03:27:42.315Z,18.69
2018-06-01T03:28:42.317Z,18.54
2018-06-01T03:29:42.324Z,18.72
2018-06-01T03:30:42.338Z,18.78
2018-06-01T03:31:42.344Z,18.66
2018-06-01T03:32:42.353Z,18.60
2018-06-01T03:33:42.359Z,18.66
2018-06-01T03:34:42.362Z,18.69
2018-06-01T03:35:42.370Z,18.75
2018-06-01T03:36:42.384Z,18.73
2018-06-01T03:37:42.382Z,18.67
2018-06-01T03:38:42.394Z,18.55
2018-06-01T03:39:42.392Z,18.41
2018-06-01T03:40:42.409Z,18.66
2018-06-01T03:41:42.408Z,18.60
2018-06-01T03:42:42.412Z,18.51
2018-06-01T03:43:42.425Z,18.55
2018-06-01T03:44:42.427Z,18.51
2018-06-01T03:45:42.432Z,18.50
2018-06-01T03:46:42.444Z,18.33
2018-06-01T03:47:42.462Z,18.37
2018-06-01T03:48:42.457Z,18.35
2018-06-01T03:49:42.459Z,18.44
2018-06-01T03:50:42.468Z,18.58
2018-06-01T03:51:42.481Z,18.60
2018-06-01T03:52:42.485Z,18.55
2018-06-01T03:53:42.491Z,18.47
2018-06-01T03:54:42.497Z,18.50
2018-06-01T03:55:42.504Z,18.65
2018-06-01T03:56:42.509Z,18.76
2018-06-01T03:57:42.519Z,18.55
2018-06-01T03:58:42.523Z,18.55
2018-06-01T03:59:42.531Z,18.54
2018-06-01T04:00:42.535Z,18.52
2018-06-01T04:01:42.544Z,18.60
2018-06-01T04:02:42.549Z,18.47
2018-06-01T04:03:42.561Z,18.51
2018-06-01T04:04:42.574Z,18.63
2018-06-01T04:05:42.572Z,18.60
2018-06-01T04:06:42.585Z,18.62
2018-06-01T04:07:42.585Z,18.63
2018-06-01T04:08:42.592Z,18.47
2018-06-01T04:09:42.598Z,18.62
2018-06-01T04:10:42.640Z,18.42
2018-06-01T04:11:42.614Z,18.51
2018-06-01T04:12:42.623Z,18.47
2018-06-01T04:13:42.626Z,18.36
2018-06-01T04:14:42.631Z,18.52
2018-06-01T04:15:42.641Z,18.52
2018-06-01T04:16:42.648Z,18.37
2018-06-01T04:17:42.649Z,18.51
2018-06-01T04:18:42.661Z,18.42
2018-06-01T04:19:42.672Z,18.41
2018-06-01T04:20:42.676Z,18.48
2018-06-01T04:21:42.677Z,18.52
2018-06-01T04:22:42.685Z,18.41
2018-06-01T04:23:42.699Z,18.52
2018-06-01T04:24:42.700Z,18.50
2018-06-01T04:25:42.717Z,18.41
2018-06-01T04:26:42.714Z,18.52
2018-06-01T04:27:42.735Z,18.60
2018-06-01T04:28:42.725Z,18.60
2018-06-01T04:29:42.739Z,18.70
2018-06-01T04:30:42.741Z,18.76
2018-06-01T04:31:42.746Z,18.66
2018-06-01T04:32:42.754Z,18.72
2018-06-01T04:33:42.758Z,18.72
2018-06-01T04:34:42.767Z,18.70
2018-06-01T04:35:42.778Z,18.73
2018-06-01T04:36:42.786Z,18.73
2018-06-01T04:37:42.789Z,18.72
2018-06-01T04:38:42.802Z,18.73
2018-06-01T04:39:42.801Z,18.67
2018-06-01T04:40:42.812Z,18.67
2018-06-01T04:41:42.816Z,18.63
2018-06-01T04:42:42.823Z,18.78
2018-06-01T04:43:42.829Z,18.87
2018-06-01T04:44:42.834Z,18.82
2018-06-01T04:45:42.843Z,18.90
2018-06-01T04:46:42.850Z,18.85
2018-06-01T04:47:42.862Z,18.90
2018-06-01T04:48:42.864Z,18.90
2018-06-01T04:49:42.873Z,18.80
2018-06-01T04:50:42.884Z,18.88
2018-06-01T04:51:42.884Z,18.92
2018-06-01T04:52:42.893Z,18.99
2018-06-01T04:53:42.896Z,18.82
2018-06-01T04:54:42.906Z,18.82
2018-06-01T04:55:42.912Z,18.90
2018-06-01T04:56:42.919Z,18.92
2018-06-01T04:57:42.925Z,18.92
2018-06-01T04:58:42.935Z,18.91
2018-06-01T04:59:42.939Z,18.90
2018-06-01T05:00:42.946Z,19.04
2018-06-01T05:01:42.953Z,18.92
2018-06-01T05:02:42.960Z,18.98
2018-06-01T05:03:42.983Z,18.94
2018-06-01T05:04:42.973Z,19.02
2018-06-01T05:05:42.981Z,18.99
2018-06-01T05:06:42.988Z,18.94
2018-06-01T05:07:43.003Z,18.98
2018-06-01T05:08:43.004Z,19.06
2018-06-01T05:09:43.010Z,18.95
2018-06-01T05:10:43.050Z,18.91
2018-06-01T05:11:43.023Z,18.91
2018-06-01T05:12:43.034Z,19.06
2018-06-01T05:13:43.037Z,19.10
2018-06-01T05:14:43.050Z,19.02
2018-06-01T05:15:43.065Z,19.08
2018-06-01T05:16:43.080Z,19.14
2018-06-01T05:17:43.064Z,19.18
2018-06-01T05:18:43.072Z,19.23
2018-06-01T05:19:43.084Z,19.14
2018-06-01T05:20:43.103Z,19.18
2018-06-01T05:21:43.095Z,19.10
2018-06-01T05:22:43.103Z,19.26
2018-06-01T05:23:43.108Z,19.07
2018-06-01T05:24:43.118Z,19.18
2018-06-01T05:25:43.130Z,19.22
2018-06-01T05:26:43.129Z,19.07
2018-06-01T05:27:43.137Z,19.21
2018-06-01T05:28:43.140Z,19.28
2018-06-01T05:29:43.151Z,18.92
2018-06-01T05:30:43.156Z,18.99
2018-06-01T05:31:43.164Z,19.06
2018-06-01T05:32:43.176Z,19.13
2018-06-01T05:33:43.181Z,19.19
2018-06-01T05:34:43.187Z,19.19
2018-06-01T05:35:43.193Z,19.33
2018-06-01T05:36:43.205Z,19.31
2018-06-01T05:37:43.207Z,19.33
2018-06-01T05:38:43.225Z,19.33
2018-06-01T05:39:43.222Z,19.46
2018-06-01T05:40:43.250Z,19.43
2018-06-01T05:41:43.235Z,19.55
2018-06-01T05:42:43.246Z,19.50
2018-06-01T05:43:43.252Z,19.66
2018-06-01T05:44:43.261Z,19.63
2018-06-01T05:45:43.266Z,19.62
2018-06-01T05:46:43.271Z,19.61
2018-06-01T05:47:43.281Z,19.73
2018-06-01T05:48:43.296Z,19.76
2018-06-01T05:49:43.293Z,19.68
2018-06-01T05:50:43.306Z,19.65
2018-06-01T05:51:43.342Z,19.77
2018-06-01T05:52:43.341Z,19.74
2018-06-01T05:53:43.353Z,19.80
2018-06-01T05:54:43.333Z,19.87
2018-06-01T05:55:43.346Z,19.87
2018-06-01T05:56:43.345Z,19.87
2018-06-01T05:57:43.357Z,19.87
2018-06-01T05:58:43.363Z,19.76
2018-06-01T05:59:43.401Z,19.84
2018-06-01T06:00:43.380Z,19.86
2018-06-01T06:01:43.398Z,19.88
2018-06-01T06:02:43.391Z,19.86
2018-06-01T06:03:43.430Z,19.99
2018-06-01T06:04:43.407Z,19.96
2018-06-01T06:05:43.412Z,20.02
2018-06-01T06:06:43.426Z,19.98
2018-06-01T06:07:43.428Z,19.92
2018-06-01T06:08:43.438Z,20.05
2018-06-01T06:09:43.444Z,20.01
2018-06-01T06:10:43.461Z,19.98
2018-06-01T06:11:43.486Z,19.83
2018-06-01T06:12:43.471Z,19.98
2018-06-01T06:13:43.474Z,20.01
2018-06-01T06:14:43.508Z,20.13
2018-06-01T06:15:43.496Z,20.08
2018-06-01T06:16:43.514Z,20.16
2018-06-01T06:17:43.547Z,20.20
2018-06-01T06:18:43.524Z,20.20
2018-06-01T06:19:43.519Z,20.23
2018-06-01T06:20:43.530Z,20.21
2018-06-01T06:21:43.533Z,20.31
2018-06-01T06:22:43.546Z,20.20
2018-06-01T06:23:43.549Z,20.08
2018-06-01T06:24:43.569Z,20.17
2018-06-01T06:25:43.609Z,20.10
2018-06-01T06:26:43.572Z,20.28
2018-06-01T06:27:43.583Z,20.28
2018-06-01T06:28:43.591Z,20.33
2018-06-01T06:29:43.630Z,20.26
2018-06-01T06:30:43.608Z,20.18
2018-06-01T06:31:43.617Z,20.24
2018-06-01T06:32:43.628Z,20.24
2018-06-01T06:33:43.670Z,20.36
2018-06-01T06:34:43.668Z,20.33
2018-06-01T06:35:43.677Z,20.39
2018-06-01T06:36:43.660Z,20.55
2018-06-01T06:37:43.716Z,20.58
2018-06-01T06:38:43.671Z,20.69
2018-06-01T06:39:43.695Z,20.59
2018-06-01T06:40:43.689Z,20.55
2018-06-01T06:41:43.696Z,20.70
2018-06-01T06:42:43.700Z,20.67
2018-06-01T06:43:43.751Z,20.54
2018-06-01T06:44:43.751Z,20.50
2018-06-01T06:45:43.732Z,20.35
2018-06-01T06:46:43.733Z,20.58
2018-06-01T06:47:43.742Z,20.77
2018-06-01T06:48:43.749Z,20.76
2018-06-01T06:49:43.759Z,20.69
2018-06-01T06:50:43.768Z,20.77
2018-06-01T06:51:43.769Z,20.70
2018-06-01T06:52:43.779Z,20.64
2018-06-01T06:53:43.788Z,20.59
2018-06-01T06:54:43.801Z,20.70
2018-06-01T06:55:43.807Z,20.73
2018-06-01T06:56:43.821Z,20.77
2018-06-01T06:57:43.819Z,20.77
2018-06-01T06:58:43.829Z,20.64
2018-06-01T06:59:43.842Z,20.85
2018-06-01T07:00:43.848Z,20.79
2018-06-01T07:01:43.853Z,20.72
2018-06-01T07:02:43.898Z,20.67
2018-06-01T07:03:43.869Z,20.73
2018-06-01T07:04:43.883Z,20.91
2018-06-01T07:05:43.885Z,20.76
2018-06-01T07:06:43.892Z,20.92
2018-06-01T07:07:43.905Z,20.77
2018-06-01T07:08:43.914Z,20.88
2018-06-01T07:09:43.925Z,20.97
2018-06-01T07:10:43.949Z,21.06
2018-06-01T07:11:43.940Z,20.95
2018-06-01T07:12:43.947Z,21.04
2018-06-01T07:13:43.958Z,21.17
2018-06-01T07:14:43.971Z,21.27
2018-06-01T07:15:43.975Z,21.35
2018-06-01T07:16:43.977Z,21.46
2018-06-01T07:17:43.994Z,21.34
2018-06-01T07:18:43.996Z,21.27
2018-06-01T07:19:44.015Z,21.34
2018-06-01T07:20:44.013Z,21.17
2018-06-01T07:21:44.026Z,21.37
2018-06-01T07:22:44.032Z,21.35
2018-06-01T07:23:44.039Z,21.43
2018-06-01T07:24:44.058Z,21.43
2018-06-01T07:25:44.056Z,21.14
2018-06-01T07:26:44.067Z,21.35
2018-06-01T07:27:44.110Z,21.44
2018-06-01T07:28:44.085Z,21.44
2018-06-01T07:29:44.103Z,21.56
2018-06-01T07:30:44.103Z,21.40
2018-06-01T07:31:44.117Z,21.43
2018-06-01T07:32:44.128Z,21.46
2018-06-01T07:33:44.170Z,21.47
2018-06-01T07:34:44.140Z,21.59
2018-06-01T07:35:44.149Z,21.52
2018-06-01T07:36:44.161Z,21.79
2018-06-01T07:37:44.159Z,21.83
2018-06-01T07:38:44.182Z,21.79
2018-06-01T07:39:44.178Z,21.53
2018-06-01T07:40:44.188Z,21.68
2018-06-01T07:41:44.199Z,21.79
2018-06-01T07:42:44.208Z,21.77
2018-06-01T07:43:44.257Z,21.82
2018-06-01T07:44:44.224Z,21.79
2018-06-01T07:45:44.232Z,21.83
2018-06-01T07:46:44.247Z,21.75
2018-06-01T07:47:44.255Z,21.59
2018-06-01T07:48:44.260Z,21.49
2018-06-01T07:49:44.274Z,21.46
2018-06-01T07:50:44.277Z,21.25
2018-06-01T07:51:44.288Z,21.31
2018-06-01T07:52:44.294Z,21.43
2018-06-01T07:53:44.303Z,21.44
2018-06-01T07:54:44.316Z,21.72
2018-06-01T07:55:44.322Z,21.84
2018-06-01T07:56:44.330Z,21.92
2018-06-01T07:57:44.340Z,21.94
2018-06-01T07:58:44.349Z,21.94
2018-06-01T07:59:44.360Z,21.83
2018-06-01T08:00:44.388Z,21.96
2018-06-01T08:01:44.380Z,22.00
2018-06-01T08:02:44.383Z,22.00
2018-06-01T08:03:44.395Z,21.99
2018-06-01T08:04:44.405Z,22.06
2018-06-01T08:05:44.417Z,21.84
2018-06-01T08:06:44.422Z,21.86
2018-06-01T08:07:44.440Z,21.71
2018-06-01T08:08:44.442Z,21.79
2018-06-01T08:09:44.453Z,21.99
2018-06-01T08:10:44.458Z,21.82
2018-06-01T08:11:44.469Z,21.99
2018-06-01T08:12:44.479Z,22.02
2018-06-01T08:13:44.485Z,21.86
2018-06-01T08:14:44.506Z,21.94
2018-06-01T08:15:44.504Z,22.09
2018-06-01T08:16:44.514Z,22.05
2018-06-01T08:17:44.523Z,22.00
2018-06-01T08:18:44.540Z,22.17
2018-06-01T08:19:44.542Z,22.18
2018-06-01T08:20:44.556Z,22.06
2018-06-01T08:21:44.568Z,21.96
2018-06-01T08:22:44.570Z,21.99
2018-06-01T08:23:44.581Z,22.05
2018-06-01T08:24:44.588Z,22.17
2018-06-01T08:25:44.598Z,22.20
2018-06-01T08:26:44.609Z,22.30
2018-06-01T08:27:44.616Z,22.33
2018-06-01T08:28:44.629Z,22.33
2018-06-01T08:29:44.639Z,22.24
2018-06-01T08:30:44.644Z,22.20
2018-06-01T08:31:44.652Z,22.24
2018-06-01T08:32:44.669Z,22.05
2018-06-01T08:33:44.671Z,22.30
2018-06-01T08:34:44.684Z,22.54
2018-06-01T08:35:44.697Z,22.57
2018-06-01T08:36:44.703Z,22.49
2018-06-01T08:37:44.715Z,22.55
2018-06-01T08:38:44.719Z,22.42
2018-06-01T08:39:44.730Z,22.24
2018-06-01T08:40:44.738Z,22.10
2018-06-01T08:41:44.770Z,22.03
2018-06-01T08:42:44.764Z,21.98
2018-06-01T08:43:44.766Z,22.24
2018-06-01T08:44:44.775Z,22.22
2018-06-01T08:45:44.785Z,22.07
2018-06-01T08:46:44.812Z,22.14
2018-06-01T08:47:44.813Z,22.31
2018-06-01T08:48:44.817Z,22.55
2018-06-01T08:49:44.828Z,22.64
2018-06-01T08:50:44.833Z,22.75
2018-06-01T08:51:44.849Z,22.73
2018-06-01T08:52:44.851Z,22.70
2018-06-01T08:53:44.860Z,22.85
2018-06-01T08:54:44.870Z,22.91
2018-06-01T08:55:44.884Z,22.97
2018-06-01T08:56:44.892Z,23.00
2018-06-01T08:57:44.899Z,23.01
2018-06-01T08:58:44.919Z,22.97
2018-06-01T08:59:44.920Z,23.05
2018-06-01T09:00:44.936Z,22.79
2018-06-01T09:01:44.938Z,22.62
2018-06-01T09:02:44.950Z,22.45
2018-06-01T09:03:44.968Z,22.27
2018-06-01T09:04:44.976Z,22.42
2018-06-01T09:05:44.978Z,22.72
2018-06-01T09:06:44.999Z,22.83
2018-06-01T09:07:44.996Z,22.98
2018-06-01T09:08:45.009Z,23.04
2018-06-01T09:09:45.020Z,22.98
2018-06-01T09:10:45.031Z,23.02
2018-06-01T09:11:45.066Z,23.01
2018-06-01T09:12:45.049Z,22.88
2018-06-01T09:13:45.057Z,23.01
2018-06-01T09:14:45.068Z,23.01
2018-06-01T09:15:45.081Z,23.00
2018-06-01T09:16:45.122Z,23.20
2018-06-01T09:17:45.099Z,23.22
2018-06-01T09:18:45.111Z,23.15
2018-06-01T09:19:45.121Z,22.80
2018-06-01T09:20:45.137Z,22.82
2018-06-01T09:21:45.140Z,22.97
2018-06-01T09:22:45.147Z,22.98
2018-06-01T09:23:45.157Z,22.82
2018-06-01T09:24:45.169Z,22.90
2018-06-01T09:25:45.175Z,23.01
2018-06-01T09:26:45.190Z,23.00
2018-06-01T09:27:45.200Z,23.15
2018-06-01T09:28:45.211Z,23.23
2018-06-01T09:29:45.222Z,23.20
2018-06-01T09:30:45.234Z,23.10
2018-06-01T09:31:45.241Z,23.07
2018-06-01T09:32:45.249Z,23.00
2018-06-01T09:33:45.267Z,23.09
2018-06-01T09:34:45.279Z,23.01
2018-06-01T09:35:45.280Z,23.02
2018-06-01T09:36:45.297Z,23.25
2018-06-01T09:37:45.298Z,23.36
2018-06-01T09:38:45.315Z,23.32
2018-06-01T09:39:45.317Z,23.43
2018-06-01T09:40:45.336Z,23.54
2018-06-01T09:41:45.340Z,23.61
2018-06-01T09:42:45.355Z,23.79
2018-06-01T09:43:45.359Z,23.83
2018-06-01T09:44:45.372Z,23.85
2018-06-01T09:45:45.380Z,23.87
2018-06-01T09:46:45.436Z,23.88
2018-06-01T09:47:45.402Z,23.91
2018-06-01T09:48:45.416Z,23.87
2018-06-01T09:49:45.420Z,23.98
2018-06-01T09:50:45.432Z,23.94
2018-06-01T09:51:45.445Z,23.83
2018-06-01T09:52:45.455Z,23.97
2018-06-01T09:53:45.489Z,24.13
2018-06-01T09:54:45.477Z,24.10
2018-06-01T09:55:45.486Z,24.30
2018-06-01T09:56:45.498Z,24.45
2018-06-01T09:57:45.538Z,24.45
2018-06-01T09:58:45.518Z,24.45
2018-06-01T09:59:45.529Z,24.64
2018-06-01T10:00:45.541Z,24.78
2018-06-01T10:01:45.561Z,24.61
2018-06-01T10:02:45.614Z,24.64
2018-06-01T10:03:45.573Z,24.77
2018-06-01T10:04:45.583Z,24.90
2018-06-01T10:05:45.594Z,24.99
2018-06-01T10:06:45.603Z,24.91
2018-06-01T10:07:45.617Z,24.83
2018-06-01T10:08:45.653Z,24.90
2018-06-01T10:09:45.638Z,24.81
2018-06-01T10:10:45.654Z,24.69
2018-06-01T10:11:45.668Z,24.47
2018-06-01T10:12:45.673Z,24.27
2018-06-01T10:13:45.684Z,24.21
2018-06-01T10:14:45.700Z,24.31
2018-06-01T10:15:45.711Z,24.34
2018-06-01T10:16:45.733Z,24.03
2018-06-01T10:17:45.732Z,24.20
2018-06-01T10:18:45.743Z,24.24
2018-06-01T10:19:45.753Z,24.45
2018-06-01T10:20:45.785Z,24.42
2018-06-01T10:21:45.777Z,24.37
2018-06-01T10:22:45.787Z,24.45
2018-06-01T10:23:45.803Z,24.37
2018-06-01T10:24:45.809Z,24.27
2018-06-01T10:25:45.820Z,24.32
2018-06-01T10:26:45.846Z,24.30
2018-06-01T10:27:45.850Z,24.42
2018-06-01T10:28:45.855Z,24.49
2018-06-01T10:29:45.874Z,24.42
2018-06-01T10:30:45.876Z,24.21
2018-06-01T10:31:45.889Z,24.39
2018-06-01T10:32:45.903Z,24.35
2018-06-01T10:33:45.907Z,24.32
2018-06-01T10:34:45.954Z,24.49
2018-06-01T10:35:45.932Z,24.25
2018-06-01T10:36:45.944Z,24.12
2018-06-01T10:37:45.953Z,24.03
2018-06-01T10:38:45.966Z,24.12
2018-06-01T10:39:45.983Z,24.18
2018-06-01T10:40:45.994Z,24.09
2018-06-01T10:41:45.997Z,24.09
2018-06-01T10:42:46.013Z,24.10
2018-06-01T10:43:46.023Z,24.09
2018-06-01T10:44:46.031Z,24.08
2018-06-01T10:45:46.042Z,24.00
2018-06-01T10:46:46.054Z,24.02
2018-06-01T10:47:46.073Z,24.06
2018-06-01T10:48:46.076Z,24.15
2018-06-01T10:49:46.095Z,24.22
2018-06-01T10:50:46.095Z,24.22
2018-06-01T10:51:46.108Z,24.05
2018-06-01T10:52:46.157Z,24.06
2018-06-01T10:53:46.137Z,24.10
2018-06-01T10:54:46.142Z,23.98
2018-06-01T10:55:46.160Z,23.88
2018-06-01T10:56:46.167Z,23.87
2018-06-01T10:57:46.174Z,23.87
2018-06-01T10:58:46.185Z,23.95
2018-06-01T10:59:46.196Z,23.87
2018-06-01T11:00:46.205Z,23.83
2018-06-01T11:01:46.217Z,23.76
2018-06-01T11:02:46.227Z,23.75
2018-06-01T11:03:46.239Z,23.68
2018-06-01T11:04:46.250Z,23.53
2018-06-01T11:05:46.261Z,23.68
2018-06-01T11:06:46.272Z,23.76
2018-06-01T11:07:46.279Z,23.90
2018-06-01T11:08:46.293Z,23.85
2018-06-01T11:09:46.302Z,23.88
2018-06-01T11:10:46.313Z,23.72
2018-06-01T11:11:46.330Z,23.88
2018-06-01T11:12:46.340Z,23.79
2018-06-01T11:13:46.397Z,23.98
2018-06-01T11:14:46.360Z,23.94
2018-06-01T11:15:46.373Z,23.95
2018-06-01T11:16:46.384Z,23.94
2018-06-01T11:17:46.386Z,24.02
2018-06-01T11:18:46.399Z,24.08
2018-06-01T11:19:46.411Z,23.98
2018-06-01T11:20:46.425Z,23.97
2018-06-01T11:21:46.430Z,23.95
2018-06-01T11:22:46.442Z,23.88
2018-06-01T11:23:46.456Z,23.91
2018-06-01T11:24:46.469Z,23.83
2018-06-01T11:25:46.475Z,23.84
2018-06-01T11:26:46.485Z,23.90
2018-06-01T11:27:46.507Z,23.87
2018-06-01T11:28:46.511Z,23.83
2018-06-01T11:29:46.519Z,23.85
2018-06-01T11:30:46.528Z,23.87
2018-06-01T11:31:46.537Z,23.87
2018-06-01T11:32:46.551Z,23.88
2018-06-01T11:33:46.560Z,23.84
2018-06-01T11:34:46.568Z,23.85
2018-06-01T11:35:46.581Z,23.97
2018-06-01T11:36:46.590Z,23.97
2018-06-01T11:37:46.601Z,23.98
2018-06-01T11:38:46.615Z,23.85
2018-06-01T11:39:46.623Z,24.05
2018-06-01T11:40:46.642Z,24.20
2018-06-01T11:41:46.644Z,24.40
2018-06-01T11:42:46.655Z,24.46
2018-06-01T11:43:46.665Z,24.53
2018-06-01T11:44:46.676Z,24.80
2018-06-01T11:45:46.701Z,24.64
2018-06-01T11:46:46.706Z,24.77
2018-06-01T11:47:46.708Z,24.42
2018-06-01T11:48:46.729Z,24.31
2018-06-01T11:49:46.744Z,24.21
2018-06-01T11:50:46.746Z,24.37
2018-06-01T11:51:46.759Z,24.32
2018-06-01T11:52:46.766Z,24.34
2018-06-01T11:53:46.778Z,24.27
2018-06-01T11:54:46.787Z,24.24
2018-06-01T11:55:46.798Z,24.30
2018-06-01T11:56:46.818Z,24.32
2018-06-01T11:57:46.821Z,24.32
2018-06-01T11:58:46.835Z,24.32
2018-06-01T11:59:46.845Z,24.25
2018-06-01T12:00:46.859Z,24.21
2018-06-01T12:01:46.895Z,24.24
2018-06-01T12:02:46.885Z,24.12
2018-06-01T12:03:46.886Z,24.21
2018-06-01T12:04:46.902Z,24.24
2018-06-01T12:05:46.915Z,24.34
2018-06-01T12:06:46.957Z,24.32
2018-06-01T12:07:46.941Z,24.43
2018-06-01T12:08:46.950Z,24.55
2018-06-01T12:09:46.954Z,24.64
2018-06-01T12:10:46.971Z,24.57
2018-06-01T12:11:46.986Z,24.76
2018-06-01T12:12:46.997Z,24.87
2018-06-01T12:13:47.021Z,24.99
2018-06-01T12:14:47.017Z,25.05
2018-06-01T12:15:47.026Z,25.00
2018-06-01T12:16:47.041Z,25.15
2018-06-01T12:17:47.179Z,25.02
2018-06-01T12:18:47.060Z,25.09
2018-06-01T12:19:47.065Z,24.98
2018-06-01T12:20:47.080Z,25.05
2018-06-01T12:21:47.101Z,24.96
2018-06-01T12:22:47.098Z,24.93
2018-06-01T12:23:47.116Z,24.90
2018-06-01T12:24:47.128Z,25.03
2018-06-01T12:25:47.139Z,24.98
2018-06-01T12:26:47.147Z,24.87
2018-06-01T12:27:47.159Z,24.87
2018-06-01T12:28:47.174Z,25.05
2018-06-01T12:29:47.181Z,25.17
2018-06-01T12:30:47.195Z,25.00
2018-06-01T12:31:47.223Z,25.02
2018-06-01T12:32:47.217Z,25.28
2018-06-01T12:33:47.226Z,25.21
2018-06-01T12:34:47.240Z,25.06
2018-06-01T12:35:47.254Z,25.10
2018-06-01T12:36:47.263Z,25.25
2018-06-01T12:37:47.272Z,25.32
2018-06-01T12:38:47.287Z,25.55
2018-06-01T12:39:47.299Z,25.69
2018-06-01T12:40:47.325Z,25.75
2018-06-01T12:41:47.323Z,25.76
2018-06-01T12:42:47.331Z,25.75
2018-06-01T12:43:47.358Z,25.87
2018-06-01T12:44:47.365Z,26.06
2018-06-01T12:45:47.368Z,25.99
2018-06-01T12:46:47.382Z,25.85
2018-06-01T12:47:47.399Z,25.98
2018-06-01T12:48:47.406Z,26.01
2018-06-01T12:49:47.414Z,26.01
2018-06-01T12:50:47.436Z,26.02
2018-06-01T12:51:47.450Z,25.99
2018-06-01T12:52:47.453Z,25.91